sensor_id;sensor_type;location;lat;lon;timestamp;temperature;humidity
32522;DHT22;18963;51.504;5.316;2022-09-09T00:02:20;13.10;99.90
32522;DHT22;18963;51.504;5.316;2022-09-09T00:07:41;13.00;99.90
32522;DHT22;18963;51.504;5.316;2022-09-09T00:10:14;13.00;99.90
32522;DHT22;18963;51.504;5.316;2022-09-09T00:15:17;12.90;99.90
32522;DHT22;18963;51.504;5.316;2022-09-09T00:23:08;12.90;99.90
32522;DHT22;18963;51.504;5.316;2022-09-09T00:25:39;12.90;99.90
32522;DHT22;18963;51.504;5.316;2022-09-09T00:28:10;12.90;99.90
32522;DHT22;18963;51.504;5.316;2022-09-09T00:30:40;12.90;99.90
32522;DHT22;18963;51.504;5.316;2022-09-09T00:33:10;12.90;99.90
32522;DHT22;18963;51.504;5.316;2022-09-09T00:35:50;12.80;99.90
32522;DHT22;18963;51.504;5.316;2022-09-09T00:48:11;12.70;99.90
32522;DHT22;18963;51.504;5.316;2022-09-09T00:53:28;12.60;99.90
32522;DHT22;18963;51.504;5.316;2022-09-09T00:56:16;12.60;99.90
32522;DHT22;18963;51.504;5.316;2022-09-09T00:58:49;12.60;99.90
32522;DHT22;18963;51.504;5.316;2022-09-09T01:01:16;12.50;99.90
32522;DHT22;18963;51.504;5.316;2022-09-09T01:03:50;12.50;99.90
32522;DHT22;18963;51.504;5.316;2022-09-09T01:06:29;12.40;99.90
32522;DHT22;18963;51.504;5.316;2022-09-09T01:09:10;12.40;99.90
32522;DHT22;18963;51.504;5.316;2022-09-09T01:14:10;12.40;99.90
32522;DHT22;18963;51.504;5.316;2022-09-09T01:16:37;12.40;99.90
32522;DHT22;18963;51.504;5.316;2022-09-09T01:19:03;12.30;99.90
32522;DHT22;18963;51.504;5.316;2022-09-09T01:21:36;12.40;99.90
32522;DHT22;18963;51.504;5.316;2022-09-09T01:26:39;12.30;99.90
32522;DHT22;18963;51.504;5.316;2022-09-09T01:29:07;12.30;99.90
32522;DHT22;18963;51.504;5.316;2022-09-09T01:31:41;12.30;99.90
32522;DHT22;18963;51.504;5.316;2022-09-09T01:34:11;12.30;99.90
32522;DHT22;18963;51.504;5.316;2022-09-09T01:36:47;12.40;99.90
32522;DHT22;18963;51.504;5.316;2022-09-09T01:39:16;12.40;99.90
32522;DHT22;18963;51.504;5.316;2022-09-09T01:41:42;12.30;99.90
32522;DHT22;18963;51.504;5.316;2022-09-09T01:44:07;12.30;99.90
32522;DHT22;18963;51.504;5.316;2022-09-09T01:46:33;12.30;99.90
32522;DHT22;18963;51.504;5.316;2022-09-09T01:48:59;12.30;99.90
32522;DHT22;18963;51.504;5.316;2022-09-09T01:51:25;12.30;99.90
32522;DHT22;18963;51.504;5.316;2022-09-09T01:53:51;12.30;99.90
32522;DHT22;18963;51.504;5.316;2022-09-09T01:56:20;12.20;99.90
32522;DHT22;18963;51.504;5.316;2022-09-09T02:01:15;12.20;99.90
32522;DHT22;18963;51.504;5.316;2022-09-09T02:03:44;12.10;99.90
32522;DHT22;18963;51.504;5.316;2022-09-09T02:08:50;12.10;99.90
32522;DHT22;18963;51.504;5.316;2022-09-09T02:11:16;12.10;99.90
32522;DHT22;18963;51.504;5.316;2022-09-09T02:13:43;12.10;99.90
32522;DHT22;18963;51.504;5.316;2022-09-09T02:18:39;12.10;99.90
32522;DHT22;18963;51.504;5.316;2022-09-09T02:21:05;12.10;99.90
32522;DHT22;18963;51.504;5.316;2022-09-09T02:23:31;12.10;99.90
32522;DHT22;18963;51.504;5.316;2022-09-09T02:25:57;12.10;99.90
32522;DHT22;18963;51.504;5.316;2022-09-09T02:28:24;12.10;99.90
32522;DHT22;18963;51.504;5.316;2022-09-09T02:30:50;12.10;99.90
32522;DHT22;18963;51.504;5.316;2022-09-09T02:33:24;12.10;99.90
32522;DHT22;18963;51.504;5.316;2022-09-09T02:35:50;12.10;99.90
32522;DHT22;18963;51.504;5.316;2022-09-09T02:38:16;12.10;99.90
32522;DHT22;18963;51.504;5.316;2022-09-09T02:40:42;12.10;99.90
32522;DHT22;18963;51.504;5.316;2022-09-09T02:43:07;12.10;99.90
32522;DHT22;18963;51.504;5.316;2022-09-09T02:45:38;12.10;99.90
32522;DHT22;18963;51.504;5.316;2022-09-09T02:48:26;12.10;99.90
32522;DHT22;18963;51.504;5.316;2022-09-09T02:51:06;12.10;99.90
32522;DHT22;18963;51.504;5.316;2022-09-09T02:56:21;12.10;99.90
32522;DHT22;18963;51.504;5.316;2022-09-09T02:58:48;12.10;99.90
32522;DHT22;18963;51.504;5.316;2022-09-09T03:01:14;12.10;99.90
32522;DHT22;18963;51.504;5.316;2022-09-09T03:03:40;12.10;99.90
32522;DHT22;18963;51.504;5.316;2022-09-09T03:06:06;12.10;99.90
32522;DHT22;18963;51.504;5.316;2022-09-09T03:08:32;12.10;99.90
32522;DHT22;18963;51.504;5.316;2022-09-09T03:11:00;12.10;99.90
32522;DHT22;18963;51.504;5.316;2022-09-09T03:13:29;12.00;99.90
32522;DHT22;18963;51.504;5.316;2022-09-09T03:15:54;12.10;99.90
32522;DHT22;18963;51.504;5.316;2022-09-09T03:18:20;12.10;99.90
32522;DHT22;18963;51.504;5.316;2022-09-09T03:20:46;12.00;99.90
32522;DHT22;18963;51.504;5.316;2022-09-09T03:23:13;12.00;99.90
32522;DHT22;18963;51.504;5.316;2022-09-09T03:25:39;12.10;99.90
32522;DHT22;18963;51.504;5.316;2022-09-09T03:28:05;12.10;99.90
32522;DHT22;18963;51.504;5.316;2022-09-09T03:30:30;12.20;99.90
32522;DHT22;18963;51.504;5.316;2022-09-09T03:32:56;12.20;99.90
32522;DHT22;18963;51.504;5.316;2022-09-09T03:35:22;12.30;99.90
32522;DHT22;18963;51.504;5.316;2022-09-09T03:37:47;12.30;99.90
32522;DHT22;18963;51.504;5.316;2022-09-09T03:40:13;12.40;99.90
32522;DHT22;18963;51.504;5.316;2022-09-09T03:42:38;12.40;99.90
32522;DHT22;18963;51.504;5.316;2022-09-09T03:45:05;12.40;99.90
32522;DHT22;18963;51.504;5.316;2022-09-09T03:47:30;12.50;99.90
32522;DHT22;18963;51.504;5.316;2022-09-09T03:49:56;12.50;99.90
32522;DHT22;18963;51.504;5.316;2022-09-09T03:52:21;12.40;99.90
32522;DHT22;18963;51.504;5.316;2022-09-09T03:54:50;12.40;99.90
32522;DHT22;18963;51.504;5.316;2022-09-09T03:57:16;12.40;99.90
32522;DHT22;18963;51.504;5.316;2022-09-09T03:59:42;12.40;99.90
32522;DHT22;18963;51.504;5.316;2022-09-09T04:02:08;12.50;99.90
32522;DHT22;18963;51.504;5.316;2022-09-09T04:04:34;12.50;99.90
32522;DHT22;18963;51.504;5.316;2022-09-09T04:06:59;12.60;99.90
32522;DHT22;18963;51.504;5.316;2022-09-09T04:09:25;12.60;99.90
32522;DHT22;18963;51.504;5.316;2022-09-09T04:11:50;12.70;99.90
32522;DHT22;18963;51.504;5.316;2022-09-09T04:14:16;12.60;99.90
32522;DHT22;18963;51.504;5.316;2022-09-09T04:16:42;12.70;99.90
32522;DHT22;18963;51.504;5.316;2022-09-09T04:19:10;12.70;99.90
32522;DHT22;18963;51.504;5.316;2022-09-09T04:21:38;12.70;99.90
32522;DHT22;18963;51.504;5.316;2022-09-09T04:24:05;12.70;99.90
32522;DHT22;18963;51.504;5.316;2022-09-09T04:26:30;12.80;99.90
32522;DHT22;18963;51.504;5.316;2022-09-09T04:28:56;12.70;99.90
32522;DHT22;18963;51.504;5.316;2022-09-09T04:31:22;12.70;99.90
32522;DHT22;18963;51.504;5.316;2022-09-09T04:33:49;12.80;99.90
32522;DHT22;18963;51.504;5.316;2022-09-09T04:36:14;12.80;99.90
32522;DHT22;18963;51.504;5.316;2022-09-09T04:38:40;12.80;99.90
32522;DHT22;18963;51.504;5.316;2022-09-09T04:41:06;12.80;99.90
32522;DHT22;18963;51.504;5.316;2022-09-09T04:43:32;12.80;99.90
32522;DHT22;18963;51.504;5.316;2022-09-09T04:45:58;12.70;99.90
32522;DHT22;18963;51.504;5.316;2022-09-09T04:48:26;12.70;99.90
32522;DHT22;18963;51.504;5.316;2022-09-09T04:50:56;12.70;99.90
32522;DHT22;18963;51.504;5.316;2022-09-09T04:53:22;12.70;99.90
32522;DHT22;18963;51.504;5.316;2022-09-09T04:55:47;12.80;99.90
32522;DHT22;18963;51.504;5.316;2022-09-09T04:58:14;12.80;99.90
32522;DHT22;18963;51.504;5.316;2022-09-09T05:00:39;12.80;99.90
32522;DHT22;18963;51.504;5.316;2022-09-09T05:03:05;12.90;99.90
32522;DHT22;18963;51.504;5.316;2022-09-09T05:05:31;12.90;99.90
32522;DHT22;18963;51.504;5.316;2022-09-09T05:08:03;12.90;99.90
32522;DHT22;18963;51.504;5.316;2022-09-09T05:10:29;12.90;99.90
32522;DHT22;18963;51.504;5.316;2022-09-09T05:12:54;13.00;99.90
32522;DHT22;18963;51.504;5.316;2022-09-09T05:15:20;13.00;99.90
32522;DHT22;18963;51.504;5.316;2022-09-09T05:17:46;13.00;99.90
32522;DHT22;18963;51.504;5.316;2022-09-09T05:20:12;13.10;99.90
32522;DHT22;18963;51.504;5.316;2022-09-09T05:22:37;13.10;99.90
32522;DHT22;18963;51.504;5.316;2022-09-09T05:25:03;13.20;99.90
32522;DHT22;18963;51.504;5.316;2022-09-09T05:27:29;13.20;99.90
32522;DHT22;18963;51.504;5.316;2022-09-09T05:29:56;13.20;99.90
32522;DHT22;18963;51.504;5.316;2022-09-09T05:32:22;13.30;99.90
32522;DHT22;18963;51.504;5.316;2022-09-09T05:34:48;13.30;99.90
32522;DHT22;18963;51.504;5.316;2022-09-09T05:37:13;13.40;99.90
32522;DHT22;18963;51.504;5.316;2022-09-09T05:39:39;13.40;99.90
32522;DHT22;18963;51.504;5.316;2022-09-09T05:42:04;13.50;99.90
32522;DHT22;18963;51.504;5.316;2022-09-09T05:44:30;13.50;99.90
32522;DHT22;18963;51.504;5.316;2022-09-09T05:46:56;13.50;99.90
32522;DHT22;18963;51.504;5.316;2022-09-09T05:49:22;13.60;99.90
32522;DHT22;18963;51.504;5.316;2022-09-09T05:51:47;13.60;99.90
32522;DHT22;18963;51.504;5.316;2022-09-09T05:54:13;13.70;99.90
32522;DHT22;18963;51.504;5.316;2022-09-09T05:56:40;13.80;99.90
32522;DHT22;18963;51.504;5.316;2022-09-09T05:59:06;13.90;99.90
32522;DHT22;18963;51.504;5.316;2022-09-09T06:01:33;14.00;99.90
32522;DHT22;18963;51.504;5.316;2022-09-09T06:03:58;14.10;99.90
32522;DHT22;18963;51.504;5.316;2022-09-09T06:06:30;14.20;99.90
32522;DHT22;18963;51.504;5.316;2022-09-09T06:08:56;14.30;99.90
32522;DHT22;18963;51.504;5.316;2022-09-09T06:11:26;14.40;99.90
32522;DHT22;18963;51.504;5.316;2022-09-09T06:13:52;14.40;99.90
32522;DHT22;18963;51.504;5.316;2022-09-09T06:16:19;14.50;99.90
32522;DHT22;18963;51.504;5.316;2022-09-09T06:18:45;14.50;99.90
32522;DHT22;18963;51.504;5.316;2022-09-09T06:21:13;14.50;99.90
32522;DHT22;18963;51.504;5.316;2022-09-09T06:23:40;14.40;99.90
32522;DHT22;18963;51.504;5.316;2022-09-09T06:26:07;14.40;99.90
32522;DHT22;18963;51.504;5.316;2022-09-09T06:28:33;14.40;99.90
32522;DHT22;18963;51.504;5.316;2022-09-09T06:30:59;14.30;99.90
32522;DHT22;18963;51.504;5.316;2022-09-09T06:33:25;14.30;99.90
32522;DHT22;18963;51.504;5.316;2022-09-09T06:35:52;14.30;99.90
32522;DHT22;18963;51.504;5.316;2022-09-09T06:38:18;14.50;99.90
32522;DHT22;18963;51.504;5.316;2022-09-09T06:40:50;14.50;99.90
32522;DHT22;18963;51.504;5.316;2022-09-09T06:43:16;14.60;99.90
32522;DHT22;18963;51.504;5.316;2022-09-09T06:45:42;14.80;99.90
32522;DHT22;18963;51.504;5.316;2022-09-09T06:48:08;15.00;99.90
32522;DHT22;18963;51.504;5.316;2022-09-09T06:50:34;15.20;99.90
32522;DHT22;18963;51.504;5.316;2022-09-09T06:53:00;15.30;99.90
32522;DHT22;18963;51.504;5.316;2022-09-09T06:55:25;15.40;99.90
32522;DHT22;18963;51.504;5.316;2022-09-09T06:57:51;15.60;99.90
32522;DHT22;18963;51.504;5.316;2022-09-09T07:00:17;15.80;99.90
32522;DHT22;18963;51.504;5.316;2022-09-09T07:02:43;15.90;99.90
32522;DHT22;18963;51.504;5.316;2022-09-09T07:05:09;16.00;99.90
32522;DHT22;18963;51.504;5.316;2022-09-09T07:07:35;16.10;99.90
32522;DHT22;18963;51.504;5.316;2022-09-09T07:10:00;16.10;99.90
32522;DHT22;18963;51.504;5.316;2022-09-09T07:12:26;16.20;99.90
32522;DHT22;18963;51.504;5.316;2022-09-09T07:14:51;16.50;99.90
32522;DHT22;18963;51.504;5.316;2022-09-09T07:17:17;16.60;99.90
32522;DHT22;18963;51.504;5.316;2022-09-09T07:19:42;16.70;99.90
32522;DHT22;18963;51.504;5.316;2022-09-09T07:22:08;16.70;99.90
32522;DHT22;18963;51.504;5.316;2022-09-09T07:24:35;16.70;99.90
32522;DHT22;18963;51.504;5.316;2022-09-09T07:27:02;16.50;99.90
32522;DHT22;18963;51.504;5.316;2022-09-09T07:29:28;16.50;99.90
32522;DHT22;18963;51.504;5.316;2022-09-09T07:31:54;16.40;99.90
32522;DHT22;18963;51.504;5.316;2022-09-09T07:34:19;16.40;99.90
32522;DHT22;18963;51.504;5.316;2022-09-09T07:36:45;16.40;99.90
32522;DHT22;18963;51.504;5.316;2022-09-09T07:39:14;16.40;99.90
32522;DHT22;18963;51.504;5.316;2022-09-09T07:41:43;16.40;99.90
32522;DHT22;18963;51.504;5.316;2022-09-09T07:44:11;16.30;99.90
32522;DHT22;18963;51.504;5.316;2022-09-09T07:46:37;16.40;99.90
32522;DHT22;18963;51.504;5.316;2022-09-09T07:49:04;16.40;99.90
32522;DHT22;18963;51.504;5.316;2022-09-09T07:51:32;16.40;99.90
32522;DHT22;18963;51.504;5.316;2022-09-09T07:54:02;16.50;99.90
32522;DHT22;18963;51.504;5.316;2022-09-09T07:56:38;16.60;99.90
32522;DHT22;18963;51.504;5.316;2022-09-09T07:59:04;16.70;99.90
32522;DHT22;18963;51.504;5.316;2022-09-09T08:01:35;16.80;99.90
32522;DHT22;18963;51.504;5.316;2022-09-09T08:04:05;17.00;99.90
32522;DHT22;18963;51.504;5.316;2022-09-09T08:06:35;17.10;99.90
32522;DHT22;18963;51.504;5.316;2022-09-09T08:09:00;17.30;99.90
32522;DHT22;18963;51.504;5.316;2022-09-09T08:11:27;17.30;99.90
32522;DHT22;18963;51.504;5.316;2022-09-09T08:13:53;17.40;99.90
32522;DHT22;18963;51.504;5.316;2022-09-09T08:16:20;17.50;99.90
32522;DHT22;18963;51.504;5.316;2022-09-09T08:18:47;17.50;99.90
32522;DHT22;18963;51.504;5.316;2022-09-09T08:21:14;17.50;99.90
32522;DHT22;18963;51.504;5.316;2022-09-09T08:23:41;17.60;99.90
32522;DHT22;18963;51.504;5.316;2022-09-09T08:26:09;17.80;99.90
32522;DHT22;18963;51.504;5.316;2022-09-09T08:28:35;17.80;99.90
32522;DHT22;18963;51.504;5.316;2022-09-09T08:31:05;17.90;99.90
32522;DHT22;18963;51.504;5.316;2022-09-09T08:33:31;17.90;99.90
32522;DHT22;18963;51.504;5.316;2022-09-09T08:35:56;17.90;99.90
32522;DHT22;18963;51.504;5.316;2022-09-09T08:38:21;17.90;99.90
32522;DHT22;18963;51.504;5.316;2022-09-09T08:40:47;17.80;99.90
32522;DHT22;18963;51.504;5.316;2022-09-09T08:43:14;17.70;99.90
32522;DHT22;18963;51.504;5.316;2022-09-09T08:46:01;17.60;99.90
32522;DHT22;18963;51.504;5.316;2022-09-09T08:48:37;17.60;99.90
32522;DHT22;18963;51.504;5.316;2022-09-09T08:51:06;17.60;99.90
32522;DHT22;18963;51.504;5.316;2022-09-09T08:53:38;17.70;99.90
32522;DHT22;18963;51.504;5.316;2022-09-09T08:56:09;17.70;99.90
32522;DHT22;18963;51.504;5.316;2022-09-09T08:58:41;17.80;99.90
32522;DHT22;18963;51.504;5.316;2022-09-09T09:06:09;17.70;99.90
32522;DHT22;18963;51.504;5.316;2022-09-09T09:11:03;17.60;99.90
32522;DHT22;18963;51.504;5.316;2022-09-09T09:13:35;17.60;99.90
32522;DHT22;18963;51.504;5.316;2022-09-09T09:16:07;17.60;99.90
32522;DHT22;18963;51.504;5.316;2022-09-09T09:18:34;17.60;99.90
32522;DHT22;18963;51.504;5.316;2022-09-09T09:23:31;17.60;99.90
32522;DHT22;18963;51.504;5.316;2022-09-09T09:26:00;17.60;99.90
32522;DHT22;18963;51.504;5.316;2022-09-09T09:28:30;17.60;99.90
32522;DHT22;18963;51.504;5.316;2022-09-09T09:30:58;17.60;99.90
32522;DHT22;18963;51.504;5.316;2022-09-09T09:35:51;17.70;99.90
32522;DHT22;18963;51.504;5.316;2022-09-09T09:40:49;17.60;99.90
32522;DHT22;18963;51.504;5.316;2022-09-09T09:43:18;17.60;99.90
32522;DHT22;18963;51.504;5.316;2022-09-09T09:45:45;17.50;99.90
32522;DHT22;18963;51.504;5.316;2022-09-09T09:48:12;17.50;99.90
32522;DHT22;18963;51.504;5.316;2022-09-09T09:50:48;17.50;99.90
32522;DHT22;18963;51.504;5.316;2022-09-09T09:53:22;17.50;99.90
32522;DHT22;18963;51.504;5.316;2022-09-09T09:56:11;17.50;99.90
32522;DHT22;18963;51.504;5.316;2022-09-09T10:01:26;17.30;99.90
32522;DHT22;18963;51.504;5.316;2022-09-09T10:03:59;17.20;99.90
32522;DHT22;18963;51.504;5.316;2022-09-09T10:06:29;17.00;99.90
32522;DHT22;18963;51.504;5.316;2022-09-09T10:08:55;16.90;99.90
32522;DHT22;18963;51.504;5.316;2022-09-09T10:11:24;16.80;99.90
32522;DHT22;18963;51.504;5.316;2022-09-09T10:18:59;16.60;99.90
32522;DHT22;18963;51.504;5.316;2022-09-09T10:26:43;16.50;99.90
32522;DHT22;18963;51.504;5.316;2022-09-09T10:29:09;16.60;99.90
32522;DHT22;18963;51.504;5.316;2022-09-09T10:36:47;16.60;99.90
32522;DHT22;18963;51.504;5.316;2022-09-09T10:52:09;16.90;99.90
32522;DHT22;18963;51.504;5.316;2022-09-09T10:54:47;17.10;99.90
32522;DHT22;18963;51.504;5.316;2022-09-09T10:57:57;17.20;99.90
32522;DHT22;18963;51.504;5.316;2022-09-09T11:00:13;17.30;99.90
32522;DHT22;18963;51.504;5.316;2022-09-09T11:02:39;17.30;99.90
32522;DHT22;18963;51.504;5.316;2022-09-09T11:05:14;17.30;99.90
32522;DHT22;18963;51.504;5.316;2022-09-09T11:07:55;17.40;99.90
32522;DHT22;18963;51.504;5.316;2022-09-09T11:12:50;17.50;99.90
32522;DHT22;18963;51.504;5.316;2022-09-09T11:15:22;17.50;99.90
32522;DHT22;18963;51.504;5.316;2022-09-09T11:17:50;17.50;99.90
32522;DHT22;18963;51.504;5.316;2022-09-09T11:20:17;17.60;99.90
32522;DHT22;18963;51.504;5.316;2022-09-09T11:22:54;17.60;99.90
32522;DHT22;18963;51.504;5.316;2022-09-09T11:25:21;17.60;99.90
32522;DHT22;18963;51.504;5.316;2022-09-09T11:35:47;17.20;99.90
32522;DHT22;18963;51.504;5.316;2022-09-09T11:38:37;17.10;99.90
32522;DHT22;18963;51.504;5.316;2022-09-09T11:41:05;17.10;99.90
32522;DHT22;18963;51.504;5.316;2022-09-09T11:43:42;17.10;99.90
32522;DHT22;18963;51.504;5.316;2022-09-09T11:46:08;17.10;99.90
32522;DHT22;18963;51.504;5.316;2022-09-09T11:48:39;17.10;99.90
32522;DHT22;18963;51.504;5.316;2022-09-09T11:51:09;17.30;99.90
32522;DHT22;18963;51.504;5.316;2022-09-09T11:53:47;17.40;99.90
32522;DHT22;18963;51.504;5.316;2022-09-09T11:56:22;17.50;99.90
32522;DHT22;18963;51.504;5.316;2022-09-09T11:59:23;17.60;99.90
32522;DHT22;18963;51.504;5.316;2022-09-09T12:01:43;17.60;99.90
32522;DHT22;18963;51.504;5.316;2022-09-09T12:04:17;17.60;99.90
32522;DHT22;18963;51.504;5.316;2022-09-09T12:19:40;18.60;99.90
32522;DHT22;18963;51.504;5.316;2022-09-09T12:22:12;18.60;99.90
32522;DHT22;18963;51.504;5.316;2022-09-09T12:27:34;18.60;99.90
32522;DHT22;18963;51.504;5.316;2022-09-09T12:32:34;18.80;99.90
32522;DHT22;18963;51.504;5.316;2022-09-09T12:37:36;19.00;99.90
32522;DHT22;18963;51.504;5.316;2022-09-09T12:40:04;18.90;99.90
32522;DHT22;18963;51.504;5.316;2022-09-09T12:42:32;18.80;99.90
32522;DHT22;18963;51.504;5.316;2022-09-09T12:44:59;18.70;99.90
32522;DHT22;18963;51.504;5.316;2022-09-09T12:47:46;18.60;99.90
32522;DHT22;18963;51.504;5.316;2022-09-09T12:50:15;18.40;99.90
32522;DHT22;18963;51.504;5.316;2022-09-09T12:52:44;18.00;99.90
32522;DHT22;18963;51.504;5.316;2022-09-09T12:55:21;17.50;99.90
32522;DHT22;18963;51.504;5.316;2022-09-09T12:57:47;17.20;99.90
32522;DHT22;18963;51.504;5.316;2022-09-09T13:00:22;17.10;99.90
32522;DHT22;18963;51.504;5.316;2022-09-09T13:02:57;17.20;99.90
32522;DHT22;18963;51.504;5.316;2022-09-09T13:05:37;17.40;99.90
32522;DHT22;18963;51.504;5.316;2022-09-09T13:08:13;17.60;99.90
32522;DHT22;18963;51.504;5.316;2022-09-09T13:13:49;18.00;99.90
32522;DHT22;18963;51.504;5.316;2022-09-09T13:16:07;18.20;99.90
32522;DHT22;18963;51.504;5.316;2022-09-09T13:18:43;18.30;99.90
32522;DHT22;18963;51.504;5.316;2022-09-09T13:21:09;18.50;99.90
32522;DHT22;18963;51.504;5.316;2022-09-09T13:23:35;18.70;99.90
32522;DHT22;18963;51.504;5.316;2022-09-09T13:26:02;18.90;99.90
32522;DHT22;18963;51.504;5.316;2022-09-09T13:28:30;19.00;99.90
32522;DHT22;18963;51.504;5.316;2022-09-09T13:30:59;19.10;99.90
32522;DHT22;18963;51.504;5.316;2022-09-09T13:33:29;19.10;99.90
32522;DHT22;18963;51.504;5.316;2022-09-09T13:35:56;19.20;99.90
32522;DHT22;18963;51.504;5.316;2022-09-09T13:38:21;19.20;99.90
32522;DHT22;18963;51.504;5.316;2022-09-09T13:40:58;19.30;99.90
32522;DHT22;18963;51.504;5.316;2022-09-09T13:43:24;19.30;99.90
32522;DHT22;18963;51.504;5.316;2022-09-09T13:46:01;19.30;99.90
32522;DHT22;18963;51.504;5.316;2022-09-09T13:48:27;19.20;99.90
32522;DHT22;18963;51.504;5.316;2022-09-09T13:50:57;19.00;99.90
32522;DHT22;18963;51.504;5.316;2022-09-09T13:53:23;18.90;99.90
32522;DHT22;18963;51.504;5.316;2022-09-09T13:55:49;18.80;99.90
32522;DHT22;18963;51.504;5.316;2022-09-09T13:58:15;18.60;99.90
32522;DHT22;18963;51.504;5.316;2022-09-09T14:00:41;18.60;99.90
32522;DHT22;18963;51.504;5.316;2022-09-09T14:03:06;18.60;99.90
32522;DHT22;18963;51.504;5.316;2022-09-09T14:05:33;18.50;99.90
32522;DHT22;18963;51.504;5.316;2022-09-09T14:07:59;18.60;99.90
32522;DHT22;18963;51.504;5.316;2022-09-09T14:10:25;18.50;99.90
32522;DHT22;18963;51.504;5.316;2022-09-09T14:12:51;18.50;99.90
32522;DHT22;18963;51.504;5.316;2022-09-09T14:15:18;18.60;99.90
32522;DHT22;18963;51.504;5.316;2022-09-09T14:17:44;18.60;99.90
32522;DHT22;18963;51.504;5.316;2022-09-09T14:20:09;18.70;99.90
32522;DHT22;18963;51.504;5.316;2022-09-09T14:22:37;18.80;99.90
32522;DHT22;18963;51.504;5.316;2022-09-09T14:25:04;18.90;99.90
32522;DHT22;18963;51.504;5.316;2022-09-09T14:27:30;19.00;99.90
32522;DHT22;18963;51.504;5.316;2022-09-09T14:29:56;19.10;99.90
32522;DHT22;18963;51.504;5.316;2022-09-09T14:32:27;19.30;99.90
32522;DHT22;18963;51.504;5.316;2022-09-09T14:34:55;19.40;99.90
32522;DHT22;18963;51.504;5.316;2022-09-09T14:37:26;19.50;99.90
32522;DHT22;18963;51.504;5.316;2022-09-09T14:39:52;19.40;99.90
32522;DHT22;18963;51.504;5.316;2022-09-09T14:42:19;19.40;99.90
32522;DHT22;18963;51.504;5.316;2022-09-09T14:44:44;19.50;99.90
32522;DHT22;18963;51.504;5.316;2022-09-09T14:47:10;19.40;99.90
32522;DHT22;18963;51.504;5.316;2022-09-09T14:49:35;19.30;99.90
32522;DHT22;18963;51.504;5.316;2022-09-09T14:52:02;19.30;99.90
32522;DHT22;18963;51.504;5.316;2022-09-09T14:54:28;19.30;99.90
32522;DHT22;18963;51.504;5.316;2022-09-09T14:56:54;19.40;99.90
32522;DHT22;18963;51.504;5.316;2022-09-09T14:59:20;19.40;99.90
32522;DHT22;18963;51.504;5.316;2022-09-09T15:01:45;19.50;99.90
32522;DHT22;18963;51.504;5.316;2022-09-09T15:04:11;19.50;99.90
32522;DHT22;18963;51.504;5.316;2022-09-09T15:06:37;19.50;99.90
32522;DHT22;18963;51.504;5.316;2022-09-09T15:09:04;19.50;99.90
32522;DHT22;18963;51.504;5.316;2022-09-09T15:11:31;19.40;99.90
32522;DHT22;18963;51.504;5.316;2022-09-09T15:13:58;19.20;99.90
32522;DHT22;18963;51.504;5.316;2022-09-09T15:16:25;18.70;99.90
32522;DHT22;18963;51.504;5.316;2022-09-09T15:18:51;17.80;99.90
32522;DHT22;18963;51.504;5.316;2022-09-09T15:21:19;17.00;99.90
32522;DHT22;18963;51.504;5.316;2022-09-09T15:23:45;16.50;99.90
32522;DHT22;18963;51.504;5.316;2022-09-09T15:26:11;16.10;99.90
32522;DHT22;18963;51.504;5.316;2022-09-09T15:28:41;15.90;99.90
32522;DHT22;18963;51.504;5.316;2022-09-09T15:31:24;15.80;99.90
32522;DHT22;18963;51.504;5.316;2022-09-09T15:33:57;15.70;99.90
32522;DHT22;18963;51.504;5.316;2022-09-09T15:36:30;15.70;99.90
32522;DHT22;18963;51.504;5.316;2022-09-09T15:38:57;15.70;99.90
32522;DHT22;18963;51.504;5.316;2022-09-09T15:41:23;15.70;99.90
32522;DHT22;18963;51.504;5.316;2022-09-09T15:43:50;15.70;99.90
32522;DHT22;18963;51.504;5.316;2022-09-09T15:48:54;15.80;99.90
32522;DHT22;18963;51.504;5.316;2022-09-09T15:51:20;15.80;99.90
32522;DHT22;18963;51.504;5.316;2022-09-09T15:53:53;15.90;99.90
32522;DHT22;18963;51.504;5.316;2022-09-09T15:59:07;16.00;99.90
32522;DHT22;18963;51.504;5.316;2022-09-09T16:01:35;16.00;99.90
32522;DHT22;18963;51.504;5.316;2022-09-09T16:06:50;16.10;99.90
32522;DHT22;18963;51.504;5.316;2022-09-09T16:09:16;16.10;99.90
32522;DHT22;18963;51.504;5.316;2022-09-09T16:11:41;16.00;99.90
32522;DHT22;18963;51.504;5.316;2022-09-09T16:14:07;16.00;99.90
32522;DHT22;18963;51.504;5.316;2022-09-09T16:16:33;16.00;99.90
32522;DHT22;18963;51.504;5.316;2022-09-09T16:19:02;15.90;99.90
32522;DHT22;18963;51.504;5.316;2022-09-09T16:21:29;15.90;99.90
32522;DHT22;18963;51.504;5.316;2022-09-09T16:23:58;15.90;99.90
32522;DHT22;18963;51.504;5.316;2022-09-09T16:26:31;15.80;99.90
32522;DHT22;18963;51.504;5.316;2022-09-09T16:28:57;15.80;99.90
32522;DHT22;18963;51.504;5.316;2022-09-09T16:31:24;15.80;99.90
32522;DHT22;18963;51.504;5.316;2022-09-09T16:33:50;15.70;99.90
32522;DHT22;18963;51.504;5.316;2022-09-09T16:36:17;15.70;99.90
32522;DHT22;18963;51.504;5.316;2022-09-09T16:38:43;15.60;99.90
32522;DHT22;18963;51.504;5.316;2022-09-09T16:41:09;15.50;99.90
32522;DHT22;18963;51.504;5.316;2022-09-09T16:43:35;15.40;99.90
32522;DHT22;18963;51.504;5.316;2022-09-09T16:46:12;15.40;99.90
32522;DHT22;18963;51.504;5.316;2022-09-09T16:48:39;15.30;99.90
32522;DHT22;18963;51.504;5.316;2022-09-09T16:51:13;15.30;99.90
32522;DHT22;18963;51.504;5.316;2022-09-09T16:53:41;15.20;99.90
32522;DHT22;18963;51.504;5.316;2022-09-09T16:56:12;15.20;99.90
32522;DHT22;18963;51.504;5.316;2022-09-09T16:58:38;15.10;99.90
32522;DHT22;18963;51.504;5.316;2022-09-09T17:01:15;15.10;99.90
32522;DHT22;18963;51.504;5.316;2022-09-09T17:03:53;15.10;99.90
32522;DHT22;18963;51.504;5.316;2022-09-09T17:06:53;15.10;99.90
32522;DHT22;18963;51.504;5.316;2022-09-09T17:09:28;15.00;99.90
32522;DHT22;18963;51.504;5.316;2022-09-09T17:12:04;15.00;99.90
32522;DHT22;18963;51.504;5.316;2022-09-09T17:14:36;15.00;99.90
32522;DHT22;18963;51.504;5.316;2022-09-09T17:17:19;14.90;99.90
32522;DHT22;18963;51.504;5.316;2022-09-09T17:20:11;14.90;99.90
32522;DHT22;18963;51.504;5.316;2022-09-09T17:25:55;14.80;99.90
32522;DHT22;18963;51.504;5.316;2022-09-09T17:31:36;14.90;99.90
32522;DHT22;18963;51.504;5.316;2022-09-09T17:34:52;14.90;99.90
32522;DHT22;18963;51.504;5.316;2022-09-09T17:43:55;15.10;99.90
32522;DHT22;18963;51.504;5.316;2022-09-09T17:46:47;15.10;99.90
32522;DHT22;18963;51.504;5.316;2022-09-09T17:49:45;15.10;99.90
32522;DHT22;18963;51.504;5.316;2022-09-09T17:52:17;15.10;99.90
32522;DHT22;18963;51.504;5.316;2022-09-09T17:54:53;15.10;99.90
32522;DHT22;18963;51.504;5.316;2022-09-09T17:57:23;15.10;99.90
32522;DHT22;18963;51.504;5.316;2022-09-09T17:59:49;15.00;99.90
32522;DHT22;18963;51.504;5.316;2022-09-09T18:02:14;15.00;99.90